sensor_id;sensor_type;location;lat;lon;timestamp;P1;durP1;ratioP1;P2;durP2;ratioP2
23898;SDS011;20544;50.018;20.010;2023-02-28T00:02:29;21.40;;;13.28;;
23898;SDS011;20544;50.018;20.010;2023-02-28T00:08:50;20.60;;;12.53;;
23898;SDS011;20544;50.018;20.010;2023-02-28T00:12:07;24.78;;;13.73;;
23898;SDS011;20544;50.018;20.010;2023-02-28T00:15:24;22.88;;;13.03;;
23898;SDS011;20544;50.018;20.010;2023-02-28T00:18:40;23.73;;;13.43;;
23898;SDS011;20544;50.018;20.010;2023-02-28T00:21:58;21.60;;;13.63;;
23898;SDS011;20544;50.018;20.010;2023-02-28T00:25:16;24.53;;;13.75;;
23898;SDS011;20544;50.018;20.010;2023-02-28T00:28:35;23.10;;;13.40;;
23898;SDS011;20544;50.018;20.010;2023-02-28T00:31:52;24.25;;;14.30;;
23898;SDS011;20544;50.018;20.010;2023-02-28T00:35:10;20.98;;;13.08;;
23898;SDS011;20544;50.018;20.010;2023-02-28T00:38:28;22.50;;;14.15;;
23898;SDS011;20544;50.018;20.010;2023-02-28T00:41:45;24.85;;;14.35;;
23898;SDS011;20544;50.018;20.010;2023-02-28T00:45:02;24.68;;;14.63;;
23898;SDS011;20544;50.018;20.010;2023-02-28T00:48:20;25.18;;;15.18;;
23898;SDS011;20544;50.018;20.010;2023-02-28T00:51:37;25.48;;;14.75;;
23898;SDS011;20544;50.018;20.010;2023-02-28T00:54:53;24.68;;;14.85;;
23898;SDS011;20544;50.018;20.010;2023-02-28T00:58:11;22.53;;;14.05;;
23898;SDS011;20544;50.018;20.010;2023-02-28T01:01:27;23.20;;;14.40;;
23898;SDS011;20544;50.018;20.010;2023-02-28T01:04:44;25.20;;;14.60;;
23898;SDS011;20544;50.018;20.010;2023-02-28T01:08:04;26.43;;;14.60;;
23898;SDS011;20544;50.018;20.010;2023-02-28T01:11:21;22.98;;;14.15;;
23898;SDS011;20544;50.018;20.010;2023-02-28T01:14:39;23.02;;;13.43;;
23898;SDS011;20544;50.018;20.010;2023-02-28T01:17:58;23.18;;;14.13;;
23898;SDS011;20544;50.018;20.010;2023-02-28T01:21:15;23.88;;;14.93;;
23898;SDS011;20544;50.018;20.010;2023-02-28T01:27:50;25.50;;;15.20;;
23898;SDS011;20544;50.018;20.010;2023-02-28T01:31:08;24.63;;;15.65;;
23898;SDS011;20544;50.018;20.010;2023-02-28T01:34:26;24.75;;;14.40;;
23898;SDS011;20544;50.018;20.010;2023-02-28T01:37:43;27.83;;;14.95;;
23898;SDS011;20544;50.018;20.010;2023-02-28T01:41:01;25.08;;;15.35;;
23898;SDS011;20544;50.018;20.010;2023-02-28T01:48:08;27.68;;;15.05;;
23898;SDS011;20544;50.018;20.010;2023-02-28T01:54:29;27.08;;;15.83;;
23898;SDS011;20544;50.018;20.010;2023-02-28T01:57:50;29.75;;;17.10;;
23898;SDS011;20544;50.018;20.010;2023-02-28T02:01:10;27.70;;;16.68;;
23898;SDS011;20544;50.018;20.010;2023-02-28T02:04:31;28.38;;;17.05;;
23898;SDS011;20544;50.018;20.010;2023-02-28T02:10:54;26.40;;;15.95;;
23898;SDS011;20544;50.018;20.010;2023-02-28T02:17:45;26.93;;;16.30;;
23898;SDS011;20544;50.018;20.010;2023-02-28T02:21:14;25.10;;;15.70;;
23898;SDS011;20544;50.018;20.010;2023-02-28T02:24:51;26.05;;;15.23;;
23898;SDS011;20544;50.018;20.010;2023-02-28T02:42:43;25.35;;;16.65;;
23898;SDS011;20544;50.018;20.010;2023-02-28T02:46:04;27.10;;;17.73;;
23898;SDS011;20544;50.018;20.010;2023-02-28T02:49:25;26.98;;;17.58;;
23898;SDS011;20544;50.018;20.010;2023-02-28T02:55:50;28.63;;;16.55;;
23898;SDS011;20544;50.018;20.010;2023-02-28T02:59:10;25.85;;;16.85;;
23898;SDS011;20544;50.018;20.010;2023-02-28T03:02:32;23.45;;;16.08;;
23898;SDS011;20544;50.018;20.010;2023-02-28T03:05:50;25.05;;;16.73;;
23898;SDS011;20544;50.018;20.010;2023-02-28T03:12:27;27.93;;;16.98;;
23898;SDS011;20544;50.018;20.010;2023-02-28T03:15:50;28.03;;;16.83;;
23898;SDS011;20544;50.018;20.010;2023-02-28T03:23:07;28.65;;;17.00;;
23898;SDS011;20544;50.018;20.010;2023-02-28T03:26:29;29.13;;;18.30;;
23898;SDS011;20544;50.018;20.010;2023-02-28T03:29:50;30.05;;;17.88;;
23898;SDS011;20544;50.018;20.010;2023-02-28T03:33:12;28.23;;;17.15;;
23898;SDS011;20544;50.018;20.010;2023-02-28T03:36:33;29.03;;;18.00;;
23898;SDS011;20544;50.018;20.010;2023-02-28T03:39:55;27.25;;;17.50;;
23898;SDS011;20544;50.018;20.010;2023-02-28T03:43:20;29.65;;;17.88;;
23898;SDS011;20544;50.018;20.010;2023-02-28T03:46:41;27.85;;;18.60;;
23898;SDS011;20544;50.018;20.010;2023-02-28T03:50:03;28.68;;;18.50;;
23898;SDS011;20544;50.018;20.010;2023-02-28T03:53:28;27.65;;;17.68;;
23898;SDS011;20544;50.018;20.010;2023-02-28T03:56:47;27.63;;;17.53;;
23898;SDS011;20544;50.018;20.010;2023-02-28T04:00:11;29.08;;;18.95;;
23898;SDS011;20544;50.018;20.010;2023-02-28T04:03:33;30.38;;;19.65;;
23898;SDS011;20544;50.018;20.010;2023-02-28T04:06:52;32.70;;;19.07;;
23898;SDS011;20544;50.018;20.010;2023-02-28T04:10:15;29.33;;;18.95;;
23898;SDS011;20544;50.018;20.010;2023-02-28T04:13:33;32.83;;;20.23;;
23898;SDS011;20544;50.018;20.010;2023-02-28T04:16:52;29.15;;;19.55;;
23898;SDS011;20544;50.018;20.010;2023-02-28T04:20:09;28.65;;;18.30;;
23898;SDS011;20544;50.018;20.010;2023-02-28T04:23:27;30.70;;;20.00;;
23898;SDS011;20544;50.018;20.010;2023-02-28T04:26:45;32.15;;;19.08;;
23898;SDS011;20544;50.018;20.010;2023-02-28T04:30:06;29.95;;;18.40;;
23898;SDS011;20544;50.018;20.010;2023-02-28T04:33:26;33.45;;;19.78;;
23898;SDS011;20544;50.018;20.010;2023-02-28T04:36:45;32.10;;;19.80;;
23898;SDS011;20544;50.018;20.010;2023-02-28T04:40:07;31.40;;;20.23;;
23898;SDS011;20544;50.018;20.010;2023-02-28T04:43:28;34.08;;;20.43;;
23898;SDS011;20544;50.018;20.010;2023-02-28T04:46:47;32.05;;;19.95;;
23898;SDS011;20544;50.018;20.010;2023-02-28T04:50:04;35.25;;;20.13;;
23898;SDS011;20544;50.018;20.010;2023-02-28T04:53:23;31.05;;;18.73;;
23898;SDS011;20544;50.018;20.010;2023-02-28T04:56:41;31.50;;;18.80;;
23898;SDS011;20544;50.018;20.010;2023-02-28T04:59:58;32.18;;;19.18;;
23898;SDS011;20544;50.018;20.010;2023-02-28T05:03:20;31.33;;;19.10;;
23898;SDS011;20544;50.018;20.010;2023-02-28T05:06:37;28.60;;;18.73;;
23898;SDS011;20544;50.018;20.010;2023-02-28T05:09:56;32.18;;;19.05;;
23898;SDS011;20544;50.018;20.010;2023-02-28T05:13:16;30.53;;;18.58;;
23898;SDS011;20544;50.018;20.010;2023-02-28T05:16:33;29.53;;;19.98;;
23898;SDS011;20544;50.018;20.010;2023-02-28T05:19:50;27.95;;;18.33;;
23898;SDS011;20544;50.018;20.010;2023-02-28T05:23:09;29.03;;;18.88;;
23898;SDS011;20544;50.018;20.010;2023-02-28T05:26:28;26.85;;;17.70;;
23898;SDS011;20544;50.018;20.010;2023-02-28T05:29:47;31.20;;;20.05;;
23898;SDS011;20544;50.018;20.010;2023-02-28T05:33:04;27.98;;;18.90;;
23898;SDS011;20544;50.018;20.010;2023-02-28T05:36:25;28.33;;;19.20;;
23898;SDS011;20544;50.018;20.010;2023-02-28T05:39:42;31.03;;;19.80;;
23898;SDS011;20544;50.018;20.010;2023-02-28T05:42:59;32.00;;;20.23;;
23898;SDS011;20544;50.018;20.010;2023-02-28T05:46:16;29.60;;;19.75;;
23898;SDS011;20544;50.018;20.010;2023-02-28T05:49:35;34.13;;;22.15;;
23898;SDS011;20544;50.018;20.010;2023-02-28T05:52:51;37.85;;;23.50;;
23898;SDS011;20544;50.018;20.010;2023-02-28T05:56:11;32.65;;;21.35;;
23898;SDS011;20544;50.018;20.010;2023-02-28T05:59:29;34.58;;;20.58;;
23898;SDS011;20544;50.018;20.010;2023-02-28T06:02:47;28.80;;;19.38;;
23898;SDS011;20544;50.018;20.010;2023-02-28T06:09:21;34.90;;;21.80;;
23898;SDS011;20544;50.018;20.010;2023-02-28T06:12:39;34.83;;;20.48;;
23898;SDS011;20544;50.018;20.010;2023-02-28T06:15:56;32.18;;;21.40;;
23898;SDS011;20544;50.018;20.010;2023-02-28T06:19:18;34.65;;;21.55;;
23898;SDS011;20544;50.018;20.010;2023-02-28T06:25:38;34.25;;;21.60;;
23898;SDS011;20544;50.018;20.010;2023-02-28T06:29:00;33.33;;;21.63;;
23898;SDS011;20544;50.018;20.010;2023-02-28T06:32:16;34.48;;;21.55;;
23898;SDS011;20544;50.018;20.010;2023-02-28T06:35:35;33.73;;;22.25;;
23898;SDS011;20544;50.018;20.010;2023-02-28T06:38:57;32.60;;;21.68;;
23898;SDS011;20544;50.018;20.010;2023-02-28T06:42:15;37.13;;;22.83;;
23898;SDS011;20544;50.018;20.010;2023-02-28T06:45:35;34.60;;;21.55;;
23898;SDS011;20544;50.018;20.010;2023-02-28T06:48:56;34.18;;;21.33;;
23898;SDS011;20544;50.018;20.010;2023-02-28T06:55:17;30.98;;;21.18;;
23898;SDS011;20544;50.018;20.010;2023-02-28T06:58:36;35.03;;;21.73;;
23898;SDS011;20544;50.018;20.010;2023-02-28T07:01:54;34.83;;;22.53;;
23898;SDS011;20544;50.018;20.010;2023-02-28T07:05:13;34.75;;;22.63;;
23898;SDS011;20544;50.018;20.010;2023-02-28T07:08:30;34.93;;;22.05;;
23898;SDS011;20544;50.018;20.010;2023-02-28T07:11:49;33.70;;;22.05;;
23898;SDS011;20544;50.018;20.010;2023-02-28T07:15:07;35.48;;;22.40;;
23898;SDS011;20544;50.018;20.010;2023-02-28T07:18:25;34.35;;;22.93;;
23898;SDS011;20544;50.018;20.010;2023-02-28T07:21:42;35.25;;;23.02;;
23898;SDS011;20544;50.018;20.010;2023-02-28T07:24:59;36.25;;;23.43;;
23898;SDS011;20544;50.018;20.010;2023-02-28T07:28:18;36.55;;;23.20;;
23898;SDS011;20544;50.018;20.010;2023-02-28T07:31:34;38.20;;;24.40;;
23898;SDS011;20544;50.018;20.010;2023-02-28T07:34:51;34.20;;;22.68;;
23898;SDS011;20544;50.018;20.010;2023-02-28T07:41:12;38.38;;;24.13;;
23898;SDS011;20544;50.018;20.010;2023-02-28T07:44:32;36.00;;;23.10;;
23898;SDS011;20544;50.018;20.010;2023-02-28T07:47:49;37.75;;;22.73;;
23898;SDS011;20544;50.018;20.010;2023-02-28T07:51:07;34.73;;;22.80;;
23898;SDS011;20544;50.018;20.010;2023-02-28T07:57:27;34.35;;;21.25;;
23898;SDS011;20544;50.018;20.010;2023-02-28T08:00:44;34.80;;;20.05;;
23898;SDS011;20544;50.018;20.010;2023-02-28T08:04:00;31.03;;;19.68;;
23898;SDS011;20544;50.018;20.010;2023-02-28T08:07:17;34.60;;;20.75;;
23898;SDS011;20544;50.018;20.010;2023-02-28T08:10:33;30.33;;;19.33;;
23898;SDS011;20544;50.018;20.010;2023-02-28T08:13:50;30.55;;;19.45;;
23898;SDS011;20544;50.018;20.010;2023-02-28T08:17:06;29.38;;;19.45;;
23898;SDS011;20544;50.018;20.010;2023-02-28T08:20:26;29.25;;;18.90;;
23898;SDS011;20544;50.018;20.010;2023-02-28T08:23:43;29.78;;;17.45;;
23898;SDS011;20544;50.018;20.010;2023-02-28T08:27:00;28.13;;;17.18;;
23898;SDS011;20544;50.018;20.010;2023-02-28T08:30:18;28.33;;;17.90;;
23898;SDS011;20544;50.018;20.010;2023-02-28T08:33:34;25.10;;;15.15;;
23898;SDS011;20544;50.018;20.010;2023-02-28T08:36:52;25.93;;;15.95;;
23898;SDS011;20544;50.018;20.010;2023-02-28T08:40:11;28.75;;;15.63;;
23898;SDS011;20544;50.018;20.010;2023-02-28T08:43:29;20.85;;;13.10;;
23898;SDS011;20544;50.018;20.010;2023-02-28T08:46:46;22.78;;;13.68;;
23898;SDS011;20544;50.018;20.010;2023-02-28T08:50:05;24.03;;;13.05;;
23898;SDS011;20544;50.018;20.010;2023-02-28T08:53:25;15.18;;;9.60;;
23898;SDS011;20544;50.018;20.010;2023-02-28T08:56:42;15.78;;;9.53;;
23898;SDS011;20544;50.018;20.010;2023-02-28T08:59:58;13.85;;;9.55;;
23898;SDS011;20544;50.018;20.010;2023-02-28T09:03:17;15.83;;;8.73;;
23898;SDS011;20544;50.018;20.010;2023-02-28T09:06:34;13.88;;;8.68;;
23898;SDS011;20544;50.018;20.010;2023-02-28T09:09:54;12.68;;;6.78;;
23898;SDS011;20544;50.018;20.010;2023-02-28T09:13:10;10.05;;;6.75;;
23898;SDS011;20544;50.018;20.010;2023-02-28T09:16:27;10.98;;;6.95;;
23898;SDS011;20544;50.018;20.010;2023-02-28T09:19:48;9.38;;;6.10;;
23898;SDS011;20544;50.018;20.010;2023-02-28T09:29:11;10.13;;;7.03;;
23898;SDS011;20544;50.018;20.010;2023-02-28T09:32:27;94.15;;;56.50;;
23898;SDS011;20544;50.018;20.010;2023-02-28T09:35:44;33.43;;;19.65;;
23898;SDS011;20544;50.018;20.010;2023-02-28T09:42:03;12.83;;;7.63;;
23898;SDS011;20544;50.018;20.010;2023-02-28T09:45:25;12.75;;;8.13;;
23898;SDS011;20544;50.018;20.010;2023-02-28T09:48:45;10.85;;;7.58;;
23898;SDS011;20544;50.018;20.010;2023-02-28T09:52:04;11.48;;;7.45;;
23898;SDS011;20544;50.018;20.010;2023-02-28T09:55:25;10.50;;;6.65;;
23898;SDS011;20544;50.018;20.010;2023-02-28T09:58:48;10.60;;;7.50;;
23898;SDS011;20544;50.018;20.010;2023-02-28T10:02:13;10.38;;;7.08;;
23898;SDS011;20544;50.018;20.010;2023-02-28T10:05:50;12.85;;;8.23;;
23898;SDS011;20544;50.018;20.010;2023-02-28T10:09:13;11.48;;;7.65;;
23898;SDS011;20544;50.018;20.010;2023-02-28T10:12:33;12.23;;;7.80;;
23898;SDS011;20544;50.018;20.010;2023-02-28T10:15:53;12.55;;;8.60;;
23898;SDS011;20544;50.018;20.010;2023-02-28T10:19:14;11.28;;;7.80;;
23898;SDS011;20544;50.018;20.010;2023-02-28T10:22:43;29.63;;;16.88;;
23898;SDS011;20544;50.018;20.010;2023-02-28T10:26:08;12.75;;;7.95;;
23898;SDS011;20544;50.018;20.010;2023-02-28T10:29:28;12.15;;;7.58;;
23898;SDS011;20544;50.018;20.010;2023-02-28T10:32:49;10.00;;;6.48;;
23898;SDS011;20544;50.018;20.010;2023-02-28T10:36:08;11.85;;;8.35;;
23898;SDS011;20544;50.018;20.010;2023-02-28T10:39:41;12.05;;;8.38;;
23898;SDS011;20544;50.018;20.010;2023-02-28T10:43:03;11.50;;;8.20;;
23898;SDS011;20544;50.018;20.010;2023-02-28T10:46:30;13.13;;;8.63;;
23898;SDS011;20544;50.018;20.010;2023-02-28T10:49:48;12.08;;;8.63;;
23898;SDS011;20544;50.018;20.010;2023-02-28T10:56:21;13.00;;;8.93;;
23898;SDS011;20544;50.018;20.010;2023-02-28T10:59:40;12.80;;;8.50;;
23898;SDS011;20544;50.018;20.010;2023-02-28T11:02:56;11.25;;;7.03;;
23898;SDS011;20544;50.018;20.010;2023-02-28T11:06:17;12.40;;;7.83;;
23898;SDS011;20544;50.018;20.010;2023-02-28T11:09:38;12.20;;;8.85;;
23898;SDS011;20544;50.018;20.010;2023-02-28T11:12:56;11.23;;;7.95;;
23898;SDS011;20544;50.018;20.010;2023-02-28T11:16:15;14.70;;;9.83;;
23898;SDS011;20544;50.018;20.010;2023-02-28T11:19:34;12.38;;;8.20;;
23898;SDS011;20544;50.018;20.010;2023-02-28T11:22:52;11.28;;;7.73;;
23898;SDS011;20544;50.018;20.010;2023-02-28T11:26:11;12.70;;;8.30;;
23898;SDS011;20544;50.018;20.010;2023-02-28T11:29:29;10.43;;;7.50;;
23898;SDS011;20544;50.018;20.010;2023-02-28T11:32:49;10.80;;;7.50;;
23898;SDS011;20544;50.018;20.010;2023-02-28T11:36:13;9.38;;;6.98;;
23898;SDS011;20544;50.018;20.010;2023-02-28T11:39:34;9.25;;;7.18;;
23898;SDS011;20544;50.018;20.010;2023-02-28T11:42:52;11.78;;;7.23;;
23898;SDS011;20544;50.018;20.010;2023-02-28T11:46:22;9.13;;;7.10;;
23898;SDS011;20544;50.018;20.010;2023-02-28T11:49:45;9.83;;;6.78;;
23898;SDS011;20544;50.018;20.010;2023-02-28T11:53:10;8.28;;;6.20;;
23898;SDS011;20544;50.018;20.010;2023-02-28T11:56:33;12.43;;;7.48;;
23898;SDS011;20544;50.018;20.010;2023-02-28T11:59:57;9.88;;;6.98;;
23898;SDS011;20544;50.018;20.010;2023-02-28T12:03:28;9.28;;;6.48;;
23898;SDS011;20544;50.018;20.010;2023-02-28T12:06:57;10.23;;;6.90;;
23898;SDS011;20544;50.018;20.010;2023-02-28T12:10:21;10.50;;;6.80;;
23898;SDS011;20544;50.018;20.010;2023-02-28T12:13:43;9.80;;;6.75;;
23898;SDS011;20544;50.018;20.010;2023-02-28T12:17:09;10.85;;;6.68;;
23898;SDS011;20544;50.018;20.010;2023-02-28T12:20:35;11.83;;;7.20;;
23898;SDS011;20544;50.018;20.010;2023-02-28T12:27:43;8.63;;;6.35;;
23898;SDS011;20544;50.018;20.010;2023-02-28T12:31:04;9.60;;;6.70;;
23898;SDS011;20544;50.018;20.010;2023-02-28T12:34:25;10.85;;;7.90;;
23898;SDS011;20544;50.018;20.010;2023-02-28T12:37:46;9.63;;;7.18;;
23898;SDS011;20544;50.018;20.010;2023-02-28T12:41:09;11.38;;;7.30;;
23898;SDS011;20544;50.018;20.010;2023-02-28T12:44:30;10.53;;;6.93;;
23898;SDS011;20544;50.018;20.010;2023-02-28T12:47:52;12.18;;;8.88;;
23898;SDS011;20544;50.018;20.010;2023-02-28T12:51:15;9.93;;;6.80;;
23898;SDS011;20544;50.018;20.010;2023-02-28T12:57:56;11.28;;;8.75;;
23898;SDS011;20544;50.018;20.010;2023-02-28T13:01:31;10.65;;;7.80;;
23898;SDS011;20544;50.018;20.010;2023-02-28T13:05:10;10.70;;;8.08;;
23898;SDS011;20544;50.018;20.010;2023-02-28T13:12:22;11.23;;;8.40;;
23898;SDS011;20544;50.018;20.010;2023-02-28T13:15:40;9.10;;;7.20;;
23898;SDS011;20544;50.018;20.010;2023-02-28T13:19:17;10.33;;;7.65;;
23898;SDS011;20544;50.018;20.010;2023-02-28T13:22:40;10.95;;;7.98;;
23898;SDS011;20544;50.018;20.010;2023-02-28T13:26:03;11.03;;;8.15;;
23898;SDS011;20544;50.018;20.010;2023-02-28T13:29:27;10.90;;;7.83;;
23898;SDS011;20544;50.018;20.010;2023-02-28T13:32:45;11.58;;;8.30;;
23898;SDS011;20544;50.018;20.010;2023-02-28T13:36:11;12.83;;;8.65;;
23898;SDS011;20544;50.018;20.010;2023-02-28T13:42:59;11.53;;;8.40;;
23898;SDS011;20544;50.018;20.010;2023-02-28T13:46:35;11.58;;;7.63;;
23898;SDS011;20544;50.018;20.010;2023-02-28T13:50:22;10.50;;;7.88;;
23898;SDS011;20544;50.018;20.010;2023-02-28T13:57:07;11.65;;;7.78;;
23898;SDS011;20544;50.018;20.010;2023-02-28T14:00:43;13.65;;;8.78;;
23898;SDS011;20544;50.018;20.010;2023-02-28T14:04:43;15.48;;;9.88;;
23898;SDS011;20544;50.018;20.010;2023-02-28T14:08:23;15.10;;;9.45;;
23898;SDS011;20544;50.018;20.010;2023-02-28T14:11:42;12.20;;;8.23;;
23898;SDS011;20544;50.018;20.010;2023-02-28T14:15:00;11.95;;;8.40;;
23898;SDS011;20544;50.018;20.010;2023-02-28T14:18:31;12.30;;;7.88;;
23898;SDS011;20544;50.018;20.010;2023-02-28T14:21:56;11.88;;;8.53;;
23898;SDS011;20544;50.018;20.010;2023-02-28T14:25:22;13.18;;;7.88;;
23898;SDS011;20544;50.018;20.010;2023-02-28T14:28:50;12.08;;;8.50;;
23898;SDS011;20544;50.018;20.010;2023-02-28T14:32:27;10.60;;;7.70;;
23898;SDS011;20544;50.018;20.010;2023-02-28T14:35:57;11.83;;;8.13;;
23898;SDS011;20544;50.018;20.010;2023-02-28T14:39:26;10.83;;;7.68;;
23898;SDS011;20544;50.018;20.010;2023-02-28T14:42:59;13.70;;;8.53;;
23898;SDS011;20544;50.018;20.010;2023-02-28T14:46:15;13.27;;;9.07;;
23898;SDS011;20544;50.018;20.010;2023-02-28T14:49:36;11.95;;;8.60;;
23898;SDS011;20544;50.018;20.010;2023-02-28T14:52:55;13.35;;;9.13;;
23898;SDS011;20544;50.018;20.010;2023-02-28T14:56:18;15.25;;;8.95;;
23898;SDS011;20544;50.018;20.010;2023-02-28T14:59:38;12.40;;;8.85;;
23898;SDS011;20544;50.018;20.010;2023-02-28T15:02:58;12.83;;;9.45;;
23898;SDS011;20544;50.018;20.010;2023-02-28T15:06:25;11.78;;;8.45;;
23898;SDS011;20544;50.018;20.010;2023-02-28T15:09:45;13.35;;;8.98;;
23898;SDS011;20544;50.018;20.010;2023-02-28T15:13:02;17.60;;;11.58;;
23898;SDS011;20544;50.018;20.010;2023-02-28T15:16:25;15.50;;;10.80;;
23898;SDS011;20544;50.018;20.010;2023-02-28T15:19:46;17.38;;;12.43;;
23898;SDS011;20544;50.018;20.010;2023-02-28T15:23:07;15.30;;;11.25;;
23898;SDS011;20544;50.018;20.010;2023-02-28T15:26:27;20.48;;;13.45;;
23898;SDS011;20544;50.018;20.010;2023-02-28T15:29:50;35.45;;;19.90;;
23898;SDS011;20544;50.018;20.010;2023-02-28T15:33:19;17.43;;;11.50;;
23898;SDS011;20544;50.018;20.010;2023-02-28T15:36:38;14.33;;;9.45;;
23898;SDS011;20544;50.018;20.010;2023-02-28T15:39:55;14.48;;;10.68;;
23898;SDS011;20544;50.018;20.010;2023-02-28T15:43:22;15.03;;;9.93;;
23898;SDS011;20544;50.018;20.010;2023-02-28T15:46:43;13.98;;;10.50;;
23898;SDS011;20544;50.018;20.010;2023-02-28T15:50:13;23.45;;;11.53;;
23898;SDS011;20544;50.018;20.010;2023-02-28T15:53:35;15.33;;;11.33;;
23898;SDS011;20544;50.018;20.010;2023-02-28T15:57:02;15.58;;;11.18;;
23898;SDS011;20544;50.018;20.010;2023-02-28T16:00:27;16.43;;;10.58;;
23898;SDS011;20544;50.018;20.010;2023-02-28T16:03:47;13.48;;;9.90;;
23898;SDS011;20544;50.018;20.010;2023-02-28T16:07:12;15.23;;;10.40;;
23898;SDS011;20544;50.018;20.010;2023-02-28T16:10:33;33.68;;;18.73;;
23898;SDS011;20544;50.018;20.010;2023-02-28T16:13:49;15.55;;;10.98;;
23898;SDS011;20544;50.018;20.010;2023-02-28T16:17:09;15.58;;;10.33;;
23898;SDS011;20544;50.018;20.010;2023-02-28T16:20:32;25.25;;;10.95;;
23898;SDS011;20544;50.018;20.010;2023-02-28T16:23:50;17.65;;;10.60;;
23898;SDS011;20544;50.018;20.010;2023-02-28T16:27:07;18.50;;;10.70;;
23898;SDS011;20544;50.018;20.010;2023-02-28T16:30:29;17.68;;;11.83;;
23898;SDS011;20544;50.018;20.010;2023-02-28T16:33:46;17.55;;;11.03;;
23898;SDS011;20544;50.018;20.010;2023-02-28T16:37:07;19.33;;;11.75;;
23898;SDS011;20544;50.018;20.010;2023-02-28T16:43:44;18.25;;;11.20;;
23898;SDS011;20544;50.018;20.010;2023-02-28T16:47:06;16.88;;;11.65;;
23898;SDS011;20544;50.018;20.010;2023-02-28T16:50:26;20.20;;;11.18;;
23898;SDS011;20544;50.018;20.010;2023-02-28T16:53:44;18.33;;;11.33;;
23898;SDS011;20544;50.018;20.010;2023-02-28T17:00:18;19.48;;;11.65;;
23898;SDS011;20544;50.018;20.010;2023-02-28T17:03:37;16.75;;;11.38;;
23898;SDS011;20544;50.018;20.010;2023-02-28T17:06:57;18.30;;;12.50;;
23898;SDS011;20544;50.018;20.010;2023-02-28T17:10:17;19.10;;;13.48;;
23898;SDS011;20544;50.018;20.010;2023-02-28T17:13:35;19.90;;;13.88;;
23898;SDS011;20544;50.018;20.010;2023-02-28T17:16:52;14.10;;;11.03;;
23898;SDS011;20544;50.018;20.010;2023-02-28T17:20:11;17.08;;;11.05;;
23898;SDS011;20544;50.018;20.010;2023-02-28T17:23:30;18.15;;;12.10;;
23898;SDS011;20544;50.018;20.010;2023-02-28T17:26:48;28.45;;;11.70;;
23898;SDS011;20544;50.018;20.010;2023-02-28T17:30:08;23.95;;;11.93;;
23898;SDS011;20544;50.018;20.010;2023-02-28T17:33:36;29.43;;;16.45;;
23898;SDS011;20544;50.018;20.010;2023-02-28T17:36:53;22.98;;;12.58;;
23898;SDS011;20544;50.018;20.010;2023-02-28T17:40:14;21.70;;;13.90;;
23898;SDS011;20544;50.018;20.010;2023-02-28T17:43:34;24.78;;;14.93;;
23898;SDS011;20544;50.018;20.010;2023-02-28T17:46:52;23.35;;;14.23;;
23898;SDS011;20544;50.018;20.010;2023-02-28T17:50:15;26.43;;;14.50;;
23898;SDS011;20544;50.018;20.010;2023-02-28T17:53:34;26.03;;;14.50;;
23898;SDS011;20544;50.018;20.010;2023-02-28T17:56:54;23.78;;;14.55;;
23898;SDS011;20544;50.018;20.010;2023-02-28T18:00:13;23.70;;;14.80;;
23898;SDS011;20544;50.018;20.010;2023-02-28T18:03:35;26.98;;;15.75;;
23898;SDS011;20544;50.018;20.010;2023-02-28T18:06:54;35.13;;;16.20;;
23898;SDS011;20544;50.018;20.010;2023-02-28T18:13:32;30.93;;;16.30;;
23898;SDS011;20544;50.018;20.010;2023-02-28T18:16:49;31.58;;;16.38;;
23898;SDS011;20544;50.018;20.010;2023-02-28T18:20:10;26.65;;;14.93;;
23898;SDS011;20544;50.018;20.010;2023-02-28T18:26:42;27.60;;;15.93;;
23898;SDS011;20544;50.018;20.010;2023-02-28T18:30:02;29.98;;;15.70;;
23898;SDS011;20544;50.018;20.010;2023-02-28T18:33:24;28.83;;;15.20;;
23898;SDS011;20544;50.018;20.010;2023-02-28T18:36:41;31.65;;;16.78;;
23898;SDS011;20544;50.018;20.010;2023-02-28T18:39:57;27.18;;;16.18;;
23898;SDS011;20544;50.018;20.010;2023-02-28T18:43:18;29.30;;;16.45;;
23898;SDS011;20544;50.018;20.010;2023-02-28T18:46:35;30.40;;;16.45;;
23898;SDS011;20544;50.018;20.010;2023-02-28T18:49:53;28.25;;;15.30;;
23898;SDS011;20544;50.018;20.010;2023-02-28T18:53:15;36.85;;;19.00;;
23898;SDS011;20544;50.018;20.010;2023-02-28T18:56:34;31.40;;;17.35;;
23898;SDS011;20544;50.018;20.010;2023-02-28T18:59:52;32.08;;;17.18;;
23898;SDS011;20544;50.018;20.010;2023-02-28T19:03:11;42.25;;;19.28;;
23898;SDS011;20544;50.018;20.010;2023-02-28T19:06:30;29.00;;;18.97;;
23898;SDS011;20544;50.018;20.010;2023-02-28T19:09:48;31.43;;;18.73;;
23898;SDS011;20544;50.018;20.010;2023-02-28T19:13:09;30.70;;;18.20;;
23898;SDS011;20544;50.018;20.010;2023-02-28T19:16:31;36.28;;;21.00;;
23898;SDS011;20544;50.018;20.010;2023-02-28T19:19:49;36.58;;;20.65;;
23898;SDS011;20544;50.018;20.010;2023-02-28T19:23:12;37.00;;;20.48;;
23898;SDS011;20544;50.018;20.010;2023-02-28T19:26:32;33.15;;;20.20;;
23898;SDS011;20544;50.018;20.010;2023-02-28T19:29:53;36.68;;;20.13;;
23898;SDS011;20544;50.018;20.010;2023-02-28T19:33:16;36.18;;;20.13;;
23898;SDS011;20544;50.018;20.010;2023-02-28T19:36:39;38.43;;;19.70;;
23898;SDS011;20544;50.018;20.010;2023-02-28T19:43:13;40.00;;;21.33;;
23898;SDS011;20544;50.018;20.010;2023-02-28T19:46:30;43.85;;;23.33;;
23898;SDS011;20544;50.018;20.010;2023-02-28T19:49:47;44.13;;;24.65;;
23898;SDS011;20544;50.018;20.010;2023-02-28T19:53:03;39.53;;;24.53;;
23898;SDS011;20544;50.018;20.010;2023-02-28T19:56:25;40.53;;;23.75;;
23898;SDS011;20544;50.018;20.010;2023-02-28T19:59:41;48.08;;;25.53;;
23898;SDS011;20544;50.018;20.010;2023-02-28T20:02:59;49.00;;;27.95;;
23898;SDS011;20544;50.018;20.010;2023-02-28T20:06:15;43.68;;;28.20;;
23898;SDS011;20544;50.018;20.010;2023-02-28T20:09:33;52.33;;;28.95;;
23898;SDS011;20544;50.018;20.010;2023-02-28T20:12:50;51.38;;;29.43;;
23898;SDS011;20544;50.018;20.010;2023-02-28T20:16:11;72.00;;;33.78;;
23898;SDS011;20544;50.018;20.010;2023-02-28T20:19:28;58.60;;;33.10;;
23898;SDS011;20544;50.018;20.010;2023-02-28T20:22:45;58.28;;;32.48;;
23898;SDS011;20544;50.018;20.010;2023-02-28T20:29:23;61.88;;;38.30;;
23898;SDS011;20544;50.018;20.010;2023-02-28T20:32:48;51.15;;;32.48;;
23898;SDS011;20544;50.018;20.010;2023-02-28T20:36:10;49.58;;;30.50;;
23898;SDS011;20544;50.018;20.010;2023-02-28T20:39:34;57.48;;;32.05;;
23898;SDS011;20544;50.018;20.010;2023-02-28T20:42:54;60.38;;;33.85;;
23898;SDS011;20544;50.018;20.010;2023-02-28T20:46:12;57.30;;;34.37;;
23898;SDS011;20544;50.018;20.010;2023-02-28T20:49:30;54.80;;;32.65;;
23898;SDS011;20544;50.018;20.010;2023-02-28T20:52:50;50.40;;;31.98;;
23898;SDS011;20544;50.018;20.010;2023-02-28T20:59:23;51.95;;;31.35;;
23898;SDS011;20544;50.018;20.010;2023-02-28T21:02:40;48.55;;;31.88;;
23898;SDS011;20544;50.018;20.010;2023-02-28T21:06:13;52.05;;;32.25;;
23898;SDS011;20544;50.018;20.010;2023-02-28T21:09:49;50.50;;;33.30;;
23898;SDS011;20544;50.018;20.010;2023-02-28T21:13:07;54.50;;;33.68;;
23898;SDS011;20544;50.018;20.010;2023-02-28T21:16:33;59.20;;;34.75;;